Terminal Aerodrome Forecast
Issued by NWS

Home | Current Version | Previous Version | Text Only | Print | Product List | Glossary On
Versions: 1 2 3 4 5 6 7 8 9 10 11 12 13 14 15 16 17 18 19 20 21 22 23 24 25 26 27 28 29
000
FTUS41 KOKX 300816 AAA
TAFTEB
TAF AMD
KTEB 300816Z 3008/3106 21006KT P6SM SCT250
     FM301200 21008KT 6SM HZ VCSH FEW030 SCT080 BKN250
     FM301500 20012G19KT 6SM HZ BKN050
      TEMPO 3020/3022 3SM TSRA BKN030CB
     FM302200 23010KT 5SM -SHRA BR BKN040
     FM310000 24007KT 6SM BR BKN040
     FM310300 27005KT 6SM BR SCT050 BKN080=

USA.gov is the U.S. government's official web portal to all federal, state and local government web resources and services.